Airfield :
LOGIN :

Register | Disclaimer

   EN    FR    IT 

 










Legend :    VFR   Marginal VFR   IFR   Intensive IFR   Very Intensive IFR
Visi :
Ceiling :
>= 8 km
>= 3000ft
5 to 8 km
1000 to 3000 ft
1500m to 5 km
500 to 1000 ft
800 to 1500m
200 to 500 ft
< 800m
< 200 ft
Symbols :   Thunderstorms  Fog  Heavy snow  Heavy precipitations  Wind > 20 kt
SIGMETs :     Misc.  Thunderstorms  Icing  Turbulence  Mountain Waves  Volcanic Ashes







- Airport Elevation : 209 ft
- IATA code : CLY
- Download approach charts


LFKC - Calvi

CURRENT METAR :
  • 250200Z AUTO 19004KT CAVOK 17/14 Q1014

EXPIRED METARs :
  • 250130Z AUTO 20004KT CAVOK 17/14 Q1014
  • 250100Z AUTO 21005KT CAVOK 17/14 Q1014
  • 250030Z AUTO 20004KT CAVOK 18/15 Q1014
  • 250000Z AUTO 20005KT CAVOK 18/15 Q1014
  • 242330Z AUTO 22004KT 180V250 CAVOK 18/15 Q1015

TAF TAF LFKC
Valid from the 24 at 15:00 until the 25 at 15:00 UTC


241400Z 2415/2515 VRB05KT 9999 FEW050 BKN130
TEMPO 2415/2417 SCT040TCU
PROB40
TEMPO 2415/2416 TS FEW030CB BKN080
BECMG 2507/2509 35010KT
TEMPO 2511/2515 SCT040TCU
PROB40
TEMPO 2511/2515 TS FEW030CB BKN080 TX28/2513Z TN17/2504Z
ATIS : +33 4 95 65 82 49
No reported NOTAMs for that airfield.



MET'MAP, your aeronautical weather chart ! - Copyright ORBIFLY December 2007 - Disclaimer

ORBIFLY MET'MAP TEAM :

Programming & Development : Alexandra Zaïnal
Concept & Development : Baudouin d'Aumeries
Co-Development & Prog : Marc-Olivier Méhu
Technical & hardware support : Manuel Goepfert

Contact : metmap@orbifly.com




SOURCES & CREDITS :

   NOAA